sensor_id;sensor_type;location;lat;lon;timestamp;P1;durP1;ratioP1;P2;durP2;ratioP2
64684;SDS011;51109;47.414;18.954;2023-03-12T00:00:35;1.40;;;0.70;;
64684;SDS011;51109;47.414;18.954;2023-03-12T00:03:03;3.42;;;1.33;;
64684;SDS011;51109;47.414;18.954;2023-03-12T00:05:29;0.73;;;0.73;;
64684;SDS011;51109;47.414;18.954;2023-03-12T00:07:56;1.40;;;1.27;;
64684;SDS011;51109;47.414;18.954;2023-03-12T00:10:27;1.88;;;1.33;;
64684;SDS011;51109;47.414;18.954;2023-03-12T00:12:54;1.02;;;1.00;;
64684;SDS011;51109;47.414;18.954;2023-03-12T00:15:20;14.57;;;1.27;;
64684;SDS011;51109;47.414;18.954;2023-03-12T00:17:47;2.72;;;1.17;;
64684;SDS011;51109;47.414;18.954;2023-03-12T00:20:13;0.88;;;0.88;;
64684;SDS011;51109;47.414;18.954;2023-03-12T00:22:39;2.72;;;1.30;;
64684;SDS011;51109;47.414;18.954;2023-03-12T00:25:06;0.52;;;0.52;;
64684;SDS011;51109;47.414;18.954;2023-03-12T00:27:35;2.28;;;0.77;;
64684;SDS011;51109;47.414;18.954;2023-03-12T00:30:02;1.33;;;0.90;;
64684;SDS011;51109;47.414;18.954;2023-03-12T00:32:31;0.63;;;0.63;;
64684;SDS011;51109;47.414;18.954;2023-03-12T00:34:57;0.88;;;0.75;;
64684;SDS011;51109;47.414;18.954;2023-03-12T00:37:23;1.60;;;0.55;;
64684;SDS011;51109;47.414;18.954;2023-03-12T00:39:49;2.45;;;1.00;;
64684;SDS011;51109;47.414;18.954;2023-03-12T00:42:15;1.17;;;0.60;;
64684;SDS011;51109;47.414;18.954;2023-03-12T00:44:42;0.90;;;0.68;;
64684;SDS011;51109;47.414;18.954;2023-03-12T00:47:08;0.63;;;0.63;;
64684;SDS011;51109;47.414;18.954;2023-03-12T00:49:35;1.48;;;1.10;;
64684;SDS011;51109;47.414;18.954;2023-03-12T00:52:01;1.05;;;0.90;;
64684;SDS011;51109;47.414;18.954;2023-03-12T00:54:27;0.60;;;0.60;;
64684;SDS011;51109;47.414;18.954;2023-03-12T00:56:53;0.55;;;0.55;;
64684;SDS011;51109;47.414;18.954;2023-03-12T00:59:19;1.50;;;0.95;;
64684;SDS011;51109;47.414;18.954;2023-03-12T01:01:46;1.23;;;1.10;;
64684;SDS011;51109;47.414;18.954;2023-03-12T01:04:12;1.20;;;1.08;;
64684;SDS011;51109;47.414;18.954;2023-03-12T01:06:38;1.38;;;1.10;;
64684;SDS011;51109;47.414;18.954;2023-03-12T01:09:04;3.33;;;1.10;;
64684;SDS011;51109;47.414;18.954;2023-03-12T01:11:32;1.85;;;1.75;;
64684;SDS011;51109;47.414;18.954;2023-03-12T01:13:58;2.58;;;1.13;;
64684;SDS011;51109;47.414;18.954;2023-03-12T01:16:25;1.00;;;0.80;;
64684;SDS011;51109;47.414;18.954;2023-03-12T01:18:55;1.88;;;1.27;;
64684;SDS011;51109;47.414;18.954;2023-03-12T01:21:22;5.75;;;1.67;;
64684;SDS011;51109;47.414;18.954;2023-03-12T01:23:48;3.60;;;1.70;;
64684;SDS011;51109;47.414;18.954;2023-03-12T01:26:15;1.13;;;1.10;;
64684;SDS011;51109;47.414;18.954;2023-03-12T01:28:41;1.73;;;1.60;;
64684;SDS011;51109;47.414;18.954;2023-03-12T01:31:07;2.67;;;1.48;;
64684;SDS011;51109;47.414;18.954;2023-03-12T01:33:35;1.55;;;1.45;;
64684;SDS011;51109;47.414;18.954;2023-03-12T01:36:01;7.57;;;1.20;;
64684;SDS011;51109;47.414;18.954;2023-03-12T01:38:27;4.18;;;1.60;;
64684;SDS011;51109;47.414;18.954;2023-03-12T01:40:53;1.35;;;1.10;;
64684;SDS011;51109;47.414;18.954;2023-03-12T01:46:35;2.03;;;1.10;;
64684;SDS011;51109;47.414;18.954;2023-03-12T01:49:30;1.80;;;1.00;;
64684;SDS011;51109;47.414;18.954;2023-03-12T01:51:40;2.58;;;1.33;;
64684;SDS011;51109;47.414;18.954;2023-03-12T01:54:12;7.10;;;1.65;;
64684;SDS011;51109;47.414;18.954;2023-03-12T01:56:43;6.22;;;1.52;;
64684;SDS011;51109;47.414;18.954;2023-03-12T01:59:12;2.38;;;1.75;;
64684;SDS011;51109;47.414;18.954;2023-03-12T02:01:42;1.23;;;1.13;;
64684;SDS011;51109;47.414;18.954;2023-03-12T02:04:08;3.92;;;1.40;;
64684;SDS011;51109;47.414;18.954;2023-03-12T02:06:37;2.17;;;0.98;;
64684;SDS011;51109;47.414;18.954;2023-03-12T02:09:11;2.25;;;1.40;;
64684;SDS011;51109;47.414;18.954;2023-03-12T02:11:38;2.15;;;1.50;;
64684;SDS011;51109;47.414;18.954;2023-03-12T02:14:05;2.15;;;1.70;;
64684;SDS011;51109;47.414;18.954;2023-03-12T02:16:31;2.33;;;1.10;;
64684;SDS011;51109;47.414;18.954;2023-03-12T02:18:58;2.50;;;1.83;;
64684;SDS011;51109;47.414;18.954;2023-03-12T02:21:26;3.63;;;1.52;;
64684;SDS011;51109;47.414;18.954;2023-03-12T02:24:09;1.60;;;1.48;;
64684;SDS011;51109;47.414;18.954;2023-03-12T02:26:54;2.22;;;1.40;;
64684;SDS011;51109;47.414;18.954;2023-03-12T02:29:21;1.67;;;1.30;;
64684;SDS011;51109;47.414;18.954;2023-03-12T02:31:51;2.15;;;1.95;;
64684;SDS011;51109;47.414;18.954;2023-03-12T02:34:19;2.63;;;1.90;;
64684;SDS011;51109;47.414;18.954;2023-03-12T02:36:46;1.77;;;1.65;;
64684;SDS011;51109;47.414;18.954;2023-03-12T02:39:13;2.63;;;1.55;;
64684;SDS011;51109;47.414;18.954;2023-03-12T02:41:40;2.47;;;1.23;;
64684;SDS011;51109;47.414;18.954;2023-03-12T02:46:46;3.28;;;2.28;;
64684;SDS011;51109;47.414;18.954;2023-03-12T02:49:16;2.70;;;1.10;;
64684;SDS011;51109;47.414;18.954;2023-03-12T02:51:44;2.88;;;1.92;;
64684;SDS011;51109;47.414;18.954;2023-03-12T02:54:11;2.58;;;1.55;;
64684;SDS011;51109;47.414;18.954;2023-03-12T02:56:38;2.80;;;2.13;;
64684;SDS011;51109;47.414;18.954;2023-03-12T02:59:05;1.33;;;1.23;;
64684;SDS011;51109;47.414;18.954;2023-03-12T03:01:32;2.05;;;1.42;;
64684;SDS011;51109;47.414;18.954;2023-03-12T03:03:58;2.22;;;1.90;;
64684;SDS011;51109;47.414;18.954;2023-03-12T03:06:25;8.55;;;2.08;;
64684;SDS011;51109;47.414;18.954;2023-03-12T03:08:54;1.92;;;1.50;;
64684;SDS011;51109;47.414;18.954;2023-03-12T03:11:20;4.13;;;2.33;;
64684;SDS011;51109;47.414;18.954;2023-03-12T03:13:49;1.48;;;1.35;;
64684;SDS011;51109;47.414;18.954;2023-03-12T03:16:16;3.45;;;1.20;;
64684;SDS011;51109;47.414;18.954;2023-03-12T03:18:42;3.85;;;2.08;;
64684;SDS011;51109;47.414;18.954;2023-03-12T03:21:08;2.70;;;1.42;;
64684;SDS011;51109;47.414;18.954;2023-03-12T03:23:40;3.47;;;2.13;;
64684;SDS011;51109;47.414;18.954;2023-03-12T03:26:11;2.90;;;1.27;;
64684;SDS011;51109;47.414;18.954;2023-03-12T03:28:37;1.90;;;1.80;;
64684;SDS011;51109;47.414;18.954;2023-03-12T03:31:03;2.05;;;1.92;;
64684;SDS011;51109;47.414;18.954;2023-03-12T03:33:31;2.25;;;1.00;;
64684;SDS011;51109;47.414;18.954;2023-03-12T03:35:58;8.13;;;2.85;;
64684;SDS011;51109;47.414;18.954;2023-03-12T03:38:26;4.43;;;1.55;;
64684;SDS011;51109;47.414;18.954;2023-03-12T03:40:53;2.17;;;1.98;;
64684;SDS011;51109;47.414;18.954;2023-03-12T03:43:20;2.17;;;1.73;;
64684;SDS011;51109;47.414;18.954;2023-03-12T03:45:46;4.25;;;2.15;;
64684;SDS011;51109;47.414;18.954;2023-03-12T03:48:13;5.45;;;2.45;;
64684;SDS011;51109;47.414;18.954;2023-03-12T03:50:40;3.22;;;1.85;;
64684;SDS011;51109;47.414;18.954;2023-03-12T03:53:06;4.63;;;2.22;;
64684;SDS011;51109;47.414;18.954;2023-03-12T03:55:36;3.38;;;2.72;;
64684;SDS011;51109;47.414;18.954;2023-03-12T03:58:03;1.48;;;1.38;;
64684;SDS011;51109;47.414;18.954;2023-03-12T04:00:30;2.13;;;1.95;;
64684;SDS011;51109;47.414;18.954;2023-03-12T04:02:56;4.00;;;3.05;;
64684;SDS011;51109;47.414;18.954;2023-03-12T04:05:22;5.70;;;3.42;;
64684;SDS011;51109;47.414;18.954;2023-03-12T04:07:50;3.40;;;2.80;;
64684;SDS011;51109;47.414;18.954;2023-03-12T04:10:21;4.00;;;2.38;;
64684;SDS011;51109;47.414;18.954;2023-03-12T04:12:48;2.97;;;2.47;;
64684;SDS011;51109;47.414;18.954;2023-03-12T04:15:14;4.63;;;3.13;;
64684;SDS011;51109;47.414;18.954;2023-03-12T04:17:40;2.55;;;1.95;;
64684;SDS011;51109;47.414;18.954;2023-03-12T04:20:07;4.75;;;2.25;;
64684;SDS011;51109;47.414;18.954;2023-03-12T04:22:35;4.68;;;2.92;;
64684;SDS011;51109;47.414;18.954;2023-03-12T04:25:02;4.00;;;2.60;;
64684;SDS011;51109;47.414;18.954;2023-03-12T04:27:28;2.60;;;1.48;;
64684;SDS011;51109;47.414;18.954;2023-03-12T04:29:55;5.00;;;2.35;;
64684;SDS011;51109;47.414;18.954;2023-03-12T04:32:21;6.90;;;3.13;;
64684;SDS011;51109;47.414;18.954;2023-03-12T04:34:47;2.85;;;2.28;;
64684;SDS011;51109;47.414;18.954;2023-03-12T04:37:13;3.50;;;1.95;;
64684;SDS011;51109;47.414;18.954;2023-03-12T04:39:39;0.85;;;0.80;;
64684;SDS011;51109;47.414;18.954;2023-03-12T04:42:05;4.40;;;3.08;;
64684;SDS011;51109;47.414;18.954;2023-03-12T04:44:32;1.42;;;1.02;;
64684;SDS011;51109;47.414;18.954;2023-03-12T04:46:58;5.88;;;2.53;;
64684;SDS011;51109;47.414;18.954;2023-03-12T04:49:24;0.90;;;0.90;;
64684;SDS011;51109;47.414;18.954;2023-03-12T04:51:50;4.45;;;1.60;;
64684;SDS011;51109;47.414;18.954;2023-03-12T04:54:16;5.78;;;2.45;;
64684;SDS011;51109;47.414;18.954;2023-03-12T04:56:42;4.50;;;2.97;;
64684;SDS011;51109;47.414;18.954;2023-03-12T04:59:08;2.78;;;1.55;;
64684;SDS011;51109;47.414;18.954;2023-03-12T05:01:35;4.97;;;2.33;;
64684;SDS011;51109;47.414;18.954;2023-03-12T05:04:01;4.13;;;2.50;;
64684;SDS011;51109;47.414;18.954;2023-03-12T05:06:29;7.13;;;3.25;;
64684;SDS011;51109;47.414;18.954;2023-03-12T05:08:55;7.57;;;2.35;;
64684;SDS011;51109;47.414;18.954;2023-03-12T05:11:21;5.45;;;3.33;;
64684;SDS011;51109;47.414;18.954;2023-03-12T05:13:48;4.70;;;2.88;;
64684;SDS011;51109;47.414;18.954;2023-03-12T05:16:14;7.07;;;3.20;;
64684;SDS011;51109;47.414;18.954;2023-03-12T05:18:41;2.55;;;1.38;;
64684;SDS011;51109;47.414;18.954;2023-03-12T05:21:10;5.25;;;3.28;;
64684;SDS011;51109;47.414;18.954;2023-03-12T05:23:38;2.58;;;2.28;;
64684;SDS011;51109;47.414;18.954;2023-03-12T05:26:07;3.13;;;1.58;;
64684;SDS011;51109;47.414;18.954;2023-03-12T05:28:40;3.45;;;2.50;;
64684;SDS011;51109;47.414;18.954;2023-03-12T05:31:08;4.15;;;1.73;;
64684;SDS011;51109;47.414;18.954;2023-03-12T05:33:35;3.97;;;2.92;;
64684;SDS011;51109;47.414;18.954;2023-03-12T05:36:01;4.57;;;2.47;;
64684;SDS011;51109;47.414;18.954;2023-03-12T05:38:27;4.85;;;2.58;;
64684;SDS011;51109;47.414;18.954;2023-03-12T05:40:54;3.88;;;3.08;;
64684;SDS011;51109;47.414;18.954;2023-03-12T05:43:23;6.00;;;2.00;;
64684;SDS011;51109;47.414;18.954;2023-03-12T05:45:49;4.22;;;2.50;;
64684;SDS011;51109;47.414;18.954;2023-03-12T05:48:15;4.28;;;1.65;;
64684;SDS011;51109;47.414;18.954;2023-03-12T05:50:42;2.35;;;1.55;;
64684;SDS011;51109;47.414;18.954;2023-03-12T05:53:08;2.13;;;1.90;;
64684;SDS011;51109;47.414;18.954;2023-03-12T05:55:34;3.03;;;2.58;;
64684;SDS011;51109;47.414;18.954;2023-03-12T05:58:02;4.70;;;3.20;;
64684;SDS011;51109;47.414;18.954;2023-03-12T06:00:29;4.97;;;2.85;;
64684;SDS011;51109;47.414;18.954;2023-03-12T06:02:56;3.25;;;2.53;;
64684;SDS011;51109;47.414;18.954;2023-03-12T06:05:21;4.60;;;3.50;;
64684;SDS011;51109;47.414;18.954;2023-03-12T06:07:48;1.67;;;1.55;;
64684;SDS011;51109;47.414;18.954;2023-03-12T06:10:14;1.10;;;0.90;;
64684;SDS011;51109;47.414;18.954;2023-03-12T06:12:40;4.28;;;2.70;;
64684;SDS011;51109;47.414;18.954;2023-03-12T06:15:06;2.97;;;1.63;;
64684;SDS011;51109;47.414;18.954;2023-03-12T06:17:32;4.40;;;2.67;;
64684;SDS011;51109;47.414;18.954;2023-03-12T06:19:58;6.25;;;2.53;;
64684;SDS011;51109;47.414;18.954;2023-03-12T06:22:24;5.65;;;2.97;;
64684;SDS011;51109;47.414;18.954;2023-03-12T06:24:50;6.30;;;2.95;;
64684;SDS011;51109;47.414;18.954;2023-03-12T06:27:17;4.88;;;1.65;;
64684;SDS011;51109;47.414;18.954;2023-03-12T06:29:46;1.45;;;1.35;;
64684;SDS011;51109;47.414;18.954;2023-03-12T06:32:12;4.90;;;2.50;;
64684;SDS011;51109;47.414;18.954;2023-03-12T06:34:38;3.53;;;2.70;;
64684;SDS011;51109;47.414;18.954;2023-03-12T06:37:04;2.97;;;1.88;;
64684;SDS011;51109;47.414;18.954;2023-03-12T06:39:30;2.55;;;2.00;;
64684;SDS011;51109;47.414;18.954;2023-03-12T06:41:56;2.00;;;1.17;;
64684;SDS011;51109;47.414;18.954;2023-03-12T06:44:22;4.88;;;1.77;;
64684;SDS011;51109;47.414;18.954;2023-03-12T06:46:48;4.78;;;1.73;;
64684;SDS011;51109;47.414;18.954;2023-03-12T06:49:14;3.72;;;2.30;;
64684;SDS011;51109;47.414;18.954;2023-03-12T06:51:40;3.78;;;2.42;;
64684;SDS011;51109;47.414;18.954;2023-03-12T06:54:05;3.38;;;2.47;;
64684;SDS011;51109;47.414;18.954;2023-03-12T06:56:31;3.90;;;2.83;;
64684;SDS011;51109;47.414;18.954;2023-03-12T06:58:57;7.28;;;3.22;;
64684;SDS011;51109;47.414;18.954;2023-03-12T07:01:23;3.35;;;2.75;;
64684;SDS011;51109;47.414;18.954;2023-03-12T07:03:50;3.83;;;2.60;;
64684;SDS011;51109;47.414;18.954;2023-03-12T07:06:17;2.13;;;1.75;;
64684;SDS011;51109;47.414;18.954;2023-03-12T07:08:44;2.65;;;2.15;;
64684;SDS011;51109;47.414;18.954;2023-03-12T07:11:11;2.92;;;2.33;;
64684;SDS011;51109;47.414;18.954;2023-03-12T07:13:38;4.80;;;3.38;;
64684;SDS011;51109;47.414;18.954;2023-03-12T07:16:05;3.65;;;2.35;;
64684;SDS011;51109;47.414;18.954;2023-03-12T07:18:32;7.47;;;3.17;;
64684;SDS011;51109;47.414;18.954;2023-03-12T07:20:58;7.07;;;3.78;;
64684;SDS011;51109;47.414;18.954;2023-03-12T07:23:24;3.95;;;2.13;;
64684;SDS011;51109;47.414;18.954;2023-03-12T07:25:51;2.83;;;1.05;;
64684;SDS011;51109;47.414;18.954;2023-03-12T07:28:17;4.85;;;2.30;;
64684;SDS011;51109;47.414;18.954;2023-03-12T07:30:44;6.55;;;2.83;;
64684;SDS011;51109;47.414;18.954;2023-03-12T07:33:16;5.47;;;3.22;;
64684;SDS011;51109;47.414;18.954;2023-03-12T07:35:44;3.42;;;2.72;;
64684;SDS011;51109;47.414;18.954;2023-03-12T07:38:10;5.50;;;2.35;;
64684;SDS011;51109;47.414;18.954;2023-03-12T07:40:36;8.02;;;2.92;;
64684;SDS011;51109;47.414;18.954;2023-03-12T07:43:03;4.22;;;3.08;;
64684;SDS011;51109;47.414;18.954;2023-03-12T07:45:38;5.03;;;2.35;;
64684;SDS011;51109;47.414;18.954;2023-03-12T07:48:05;4.65;;;2.17;;
64684;SDS011;51109;47.414;18.954;2023-03-12T07:50:31;5.10;;;2.85;;
64684;SDS011;51109;47.414;18.954;2023-03-12T07:52:58;6.90;;;2.78;;
64684;SDS011;51109;47.414;18.954;2023-03-12T07:55:24;5.68;;;2.38;;
64684;SDS011;51109;47.414;18.954;2023-03-12T07:57:50;1.58;;;1.48;;
64684;SDS011;51109;47.414;18.954;2023-03-12T08:00:17;5.30;;;3.30;;
64684;SDS011;51109;47.414;18.954;2023-03-12T08:02:43;3.22;;;2.25;;
64684;SDS011;51109;47.414;18.954;2023-03-12T08:05:09;3.35;;;2.47;;
64684;SDS011;51109;47.414;18.954;2023-03-12T08:07:35;3.08;;;2.30;;
64684;SDS011;51109;47.414;18.954;2023-03-12T08:10:02;6.85;;;3.85;;
64684;SDS011;51109;47.414;18.954;2023-03-12T08:12:30;3.10;;;2.10;;
64684;SDS011;51109;47.414;18.954;2023-03-12T08:14:56;5.50;;;2.63;;
64684;SDS011;51109;47.414;18.954;2023-03-12T08:17:22;2.92;;;1.58;;
64684;SDS011;51109;47.414;18.954;2023-03-12T08:19:48;2.72;;;2.30;;
64684;SDS011;51109;47.414;18.954;2023-03-12T08:22:14;4.00;;;2.97;;
64684;SDS011;51109;47.414;18.954;2023-03-12T08:24:40;3.92;;;1.75;;
64684;SDS011;51109;47.414;18.954;2023-03-12T08:27:07;4.03;;;2.78;;
64684;SDS011;51109;47.414;18.954;2023-03-12T08:29:35;3.40;;;1.98;;
64684;SDS011;51109;47.414;18.954;2023-03-12T08:32:04;5.78;;;2.50;;
64684;SDS011;51109;47.414;18.954;2023-03-12T08:34:30;1.60;;;1.45;;
64684;SDS011;51109;47.414;18.954;2023-03-12T08:36:56;2.65;;;2.03;;
64684;SDS011;51109;47.414;18.954;2023-03-12T08:39:22;2.78;;;1.75;;
64684;SDS011;51109;47.414;18.954;2023-03-12T08:41:48;4.68;;;2.20;;
64684;SDS011;51109;47.414;18.954;2023-03-12T08:44:14;2.60;;;1.85;;
64684;SDS011;51109;47.414;18.954;2023-03-12T08:46:39;3.30;;;1.90;;
64684;SDS011;51109;47.414;18.954;2023-03-12T08:49:09;2.33;;;2.10;;
64684;SDS011;51109;47.414;18.954;2023-03-12T08:51:36;3.20;;;1.90;;
64684;SDS011;51109;47.414;18.954;2023-03-12T08:54:02;5.65;;;2.20;;
64684;SDS011;51109;47.414;18.954;2023-03-12T08:56:30;2.85;;;1.92;;
64684;SDS011;51109;47.414;18.954;2023-03-12T08:58:57;2.35;;;2.15;;
64684;SDS011;51109;47.414;18.954;2023-03-12T09:01:23;3.70;;;2.03;;
64684;SDS011;51109;47.414;18.954;2023-03-12T09:03:49;2.95;;;2.05;;
64684;SDS011;51109;47.414;18.954;2023-03-12T09:06:16;1.48;;;1.38;;
64684;SDS011;51109;47.414;18.954;2023-03-12T09:08:43;6.38;;;2.53;;
64684;SDS011;51109;47.414;18.954;2023-03-12T09:11:12;3.67;;;2.47;;
64684;SDS011;51109;47.414;18.954;2023-03-12T09:13:39;4.70;;;2.70;;
64684;SDS011;51109;47.414;18.954;2023-03-12T09:16:06;2.17;;;1.98;;
64684;SDS011;51109;47.414;18.954;2023-03-12T09:18:33;3.88;;;2.28;;
64684;SDS011;51109;47.414;18.954;2023-03-12T09:20:59;7.70;;;2.80;;
64684;SDS011;51109;47.414;18.954;2023-03-12T09:23:26;2.60;;;2.20;;
64684;SDS011;51109;47.414;18.954;2023-03-12T09:25:53;1.77;;;1.40;;
64684;SDS011;51109;47.414;18.954;2023-03-12T09:28:19;3.25;;;1.98;;
64684;SDS011;51109;47.414;18.954;2023-03-12T09:30:46;3.65;;;2.65;;
64684;SDS011;51109;47.414;18.954;2023-03-12T09:33:12;2.28;;;1.55;;
64684;SDS011;51109;47.414;18.954;2023-03-12T09:35:40;3.15;;;2.13;;
64684;SDS011;51109;47.414;18.954;2023-03-12T09:38:07;3.85;;;2.15;;
64684;SDS011;51109;47.414;18.954;2023-03-12T09:40:36;2.05;;;1.70;;
64684;SDS011;51109;47.414;18.954;2023-03-12T09:43:12;4.05;;;2.30;;
64684;SDS011;51109;47.414;18.954;2023-03-12T09:46:01;3.45;;;1.67;;
64684;SDS011;51109;47.414;18.954;2023-03-12T09:48:34;3.42;;;2.25;;
64684;SDS011;51109;47.414;18.954;2023-03-12T09:51:08;6.85;;;2.42;;
64684;SDS011;51109;47.414;18.954;2023-03-12T09:53:48;0.82;;;0.70;;
64684;SDS011;51109;47.414;18.954;2023-03-12T09:56:21;3.20;;;1.60;;
64684;SDS011;51109;47.414;18.954;2023-03-12T09:58:48;2.33;;;1.52;;
64684;SDS011;51109;47.414;18.954;2023-03-12T10:01:33;4.22;;;1.77;;
64684;SDS011;51109;47.414;18.954;2023-03-12T10:04:19;3.13;;;2.10;;
64684;SDS011;51109;47.414;18.954;2023-03-12T10:06:52;2.20;;;1.85;;
64684;SDS011;51109;47.414;18.954;2023-03-12T10:12:24;5.60;;;2.50;;
64684;SDS011;51109;47.414;18.954;2023-03-12T10:20:48;3.15;;;2.25;;
64684;SDS011;51109;47.414;18.954;2023-03-12T10:29:09;2.28;;;1.85;;
64684;SDS011;51109;47.414;18.954;2023-03-12T10:31:50;3.75;;;2.67;;
64684;SDS011;51109;47.414;18.954;2023-03-12T10:34:45;4.45;;;2.38;;
64684;SDS011;51109;47.414;18.954;2023-03-12T10:38:19;1.88;;;1.50;;
64684;SDS011;51109;47.414;18.954;2023-03-12T10:40:14;2.22;;;1.58;;
64684;SDS011;51109;47.414;18.954;2023-03-12T10:42:45;1.52;;;1.40;;
64684;SDS011;51109;47.414;18.954;2023-03-12T10:48:11;1.55;;;1.30;;
64684;SDS011;51109;47.414;18.954;2023-03-12T10:50:43;1.48;;;1.38;;
64684;SDS011;51109;47.414;18.954;2023-03-12T10:53:29;4.75;;;1.85;;
64684;SDS011;51109;47.414;18.954;2023-03-12T10:58:35;1.85;;;1.67;;
64684;SDS011;51109;47.414;18.954;2023-03-12T11:04:06;1.65;;;1.55;;
64684;SDS011;51109;47.414;18.954;2023-03-12T11:06:39;1.90;;;1.48;;
64684;SDS011;51109;47.414;18.954;2023-03-12T11:09:15;1.75;;;1.65;;
64684;SDS011;51109;47.414;18.954;2023-03-12T11:11:45;2.55;;;1.85;;
64684;SDS011;51109;47.414;18.954;2023-03-12T11:16:43;2.30;;;1.55;;
64684;SDS011;51109;47.414;18.954;2023-03-12T11:19:11;2.03;;;1.50;;
64684;SDS011;51109;47.414;18.954;2023-03-12T11:21:38;2.92;;;1.35;;
64684;SDS011;51109;47.414;18.954;2023-03-12T11:24:14;1.67;;;1.35;;
64684;SDS011;51109;47.414;18.954;2023-03-12T11:26:47;4.43;;;1.38;;
64684;SDS011;51109;47.414;18.954;2023-03-12T11:34:41;1.13;;;1.08;;
64684;SDS011;51109;47.414;18.954;2023-03-12T11:53:54;1.08;;;0.98;;
64684;SDS011;51109;47.414;18.954;2023-03-12T11:56:47;4.03;;;2.08;;
64684;SDS011;51109;47.414;18.954;2023-03-12T12:02:07;1.08;;;1.00;;
64684;SDS011;51109;47.414;18.954;2023-03-12T12:17:49;2.72;;;0.95;;
64684;SDS011;51109;47.414;18.954;2023-03-12T12:25:55;1.63;;;0.55;;
64684;SDS011;51109;47.414;18.954;2023-03-12T12:31:17;1.75;;;0.88;;
64684;SDS011;51109;47.414;18.954;2023-03-12T12:36:38;0.70;;;0.68;;
64684;SDS011;51109;47.414;18.954;2023-03-12T12:41:36;2.08;;;0.70;;
64684;SDS011;51109;47.414;18.954;2023-03-12T12:44:26;0.93;;;0.90;;
64684;SDS011;51109;47.414;18.954;2023-03-12T12:47:00;1.58;;;0.82;;
64684;SDS011;51109;47.414;18.954;2023-03-12T12:52:16;1.83;;;1.45;;
64684;SDS011;51109;47.414;18.954;2023-03-12T13:03:26;1.88;;;1.42;;
64684;SDS011;51109;47.414;18.954;2023-03-12T13:11:03;1.85;;;1.60;;
64684;SDS011;51109;47.414;18.954;2023-03-12T13:13:49;4.47;;;1.50;;
64684;SDS011;51109;47.414;18.954;2023-03-12T13:16:36;1.85;;;1.60;;
64684;SDS011;51109;47.414;18.954;2023-03-12T13:19:20;2.60;;;1.15;;
64684;SDS011;51109;47.414;18.954;2023-03-12T13:27:37;3.22;;;1.55;;
64684;SDS011;51109;47.414;18.954;2023-03-12T13:35:32;0.93;;;0.82;;
64684;SDS011;51109;47.414;18.954;2023-03-12T13:38:05;0.82;;;0.80;;
64684;SDS011;51109;47.414;18.954;2023-03-12T13:40:38;1.42;;;1.05;;
64684;SDS011;51109;47.414;18.954;2023-03-12T13:46:06;2.53;;;1.83;;
64684;SDS011;51109;47.414;18.954;2023-03-12T13:48:43;1.33;;;1.05;;
64684;SDS011;51109;47.414;18.954;2023-03-12T13:51:14;1.10;;;1.00;;
64684;SDS011;51109;47.414;18.954;2023-03-12T13:53:51;0.80;;;0.80;;
64684;SDS011;51109;47.414;18.954;2023-03-12T13:56:24;1.05;;;0.95;;
64684;SDS011;51109;47.414;18.954;2023-03-12T13:58:56;1.13;;;0.80;;
64684;SDS011;51109;47.414;18.954;2023-03-12T14:03:55;0.80;;;0.80;;
64684;SDS011;51109;47.414;18.954;2023-03-12T14:06:27;1.08;;;1.05;;
64684;SDS011;51109;47.414;18.954;2023-03-12T14:12:03;1.77;;;1.05;;
64684;SDS011;51109;47.414;18.954;2023-03-12T14:17:20;1.27;;;0.90;;
64684;SDS011;51109;47.414;18.954;2023-03-12T14:20:30;0.95;;;0.77;;
64684;SDS011;51109;47.414;18.954;2023-03-12T14:22:38;0.75;;;0.75;;
64684;SDS011;51109;47.414;18.954;2023-03-12T14:28:41;1.95;;;0.88;;
64684;SDS011;51109;47.414;18.954;2023-03-12T14:31:12;1.05;;;0.77;;
64684;SDS011;51109;47.414;18.954;2023-03-12T14:36:29;0.88;;;0.63;;
64684;SDS011;51109;47.414;18.954;2023-03-12T14:42:00;1.45;;;1.30;;
64684;SDS011;51109;47.414;18.954;2023-03-12T14:44:31;1.77;;;1.27;;
64684;SDS011;51109;47.414;18.954;2023-03-12T14:46:59;0.60;;;0.60;;
64684;SDS011;51109;47.414;18.954;2023-03-12T14:49:40;2.15;;;1.00;;
64684;SDS011;51109;47.414;18.954;2023-03-12T14:52:19;1.35;;;0.82;;
64684;SDS011;51109;47.414;18.954;2023-03-12T14:57:19;1.52;;;1.15;;
64684;SDS011;51109;47.414;18.954;2023-03-12T14:59:54;2.58;;;1.08;;
64684;SDS011;51109;47.414;18.954;2023-03-12T15:02:23;1.05;;;0.82;;
64684;SDS011;51109;47.414;18.954;2023-03-12T15:04:52;1.23;;;0.90;;
64684;SDS011;51109;47.414;18.954;2023-03-12T15:07:21;1.08;;;0.93;;
64684;SDS011;51109;47.414;18.954;2023-03-12T15:09:53;1.42;;;0.82;;
64684;SDS011;51109;47.414;18.954;2023-03-12T15:12:23;1.85;;;0.70;;
64684;SDS011;51109;47.414;18.954;2023-03-12T15:14:53;0.70;;;0.70;;
64684;SDS011;51109;47.414;18.954;2023-03-12T15:17:26;1.27;;;0.90;;
64684;SDS011;51109;47.414;18.954;2023-03-12T15:19:54;0.98;;;0.90;;
64684;SDS011;51109;47.414;18.954;2023-03-12T15:22:22;3.20;;;0.95;;
64684;SDS011;51109;47.414;18.954;2023-03-12T15:24:52;1.20;;;0.98;;
64684;SDS011;51109;47.414;18.954;2023-03-12T15:29:47;1.27;;;1.10;;
64684;SDS011;51109;47.414;18.954;2023-03-12T15:32:14;1.48;;;1.08;;
64684;SDS011;51109;47.414;18.954;2023-03-12T15:34:41;2.50;;;1.33;;
64684;SDS011;51109;47.414;18.954;2023-03-12T15:40:06;1.75;;;1.60;;
64684;SDS011;51109;47.414;18.954;2023-03-12T15:42:45;1.23;;;1.13;;
64684;SDS011;51109;47.414;18.954;2023-03-12T15:45:19;1.33;;;1.00;;
64684;SDS011;51109;47.414;18.954;2023-03-12T15:47:50;1.30;;;0.82;;
64684;SDS011;51109;47.414;18.954;2023-03-12T15:53:01;0.70;;;0.70;;
64684;SDS011;51109;47.414;18.954;2023-03-12T15:55:35;1.50;;;1.20;;
64684;SDS011;51109;47.414;18.954;2023-03-12T15:58:01;1.05;;;1.00;;
64684;SDS011;51109;47.414;18.954;2023-03-12T16:00:30;1.52;;;1.13;;
64684;SDS011;51109;47.414;18.954;2023-03-12T16:03:13;1.27;;;0.80;;
64684;SDS011;51109;47.414;18.954;2023-03-12T16:05:44;1.38;;;0.90;;
64684;SDS011;51109;47.414;18.954;2023-03-12T16:08:13;1.35;;;0.77;;
64684;SDS011;51109;47.414;18.954;2023-03-12T16:10:44;1.10;;;0.80;;
64684;SDS011;51109;47.414;18.954;2023-03-12T16:13:13;1.60;;;1.17;;
64684;SDS011;51109;47.414;18.954;2023-03-12T16:15:40;3.28;;;1.27;;
64684;SDS011;51109;47.414;18.954;2023-03-12T16:18:11;2.45;;;1.20;;
64684;SDS011;51109;47.414;18.954;2023-03-12T16:20:38;2.33;;;1.17;;
64684;SDS011;51109;47.414;18.954;2023-03-12T16:23:05;3.53;;;1.10;;
64684;SDS011;51109;47.414;18.954;2023-03-12T16:25:31;1.30;;;0.80;;
64684;SDS011;51109;47.414;18.954;2023-03-12T16:27:59;2.53;;;1.20;;
64684;SDS011;51109;47.414;18.954;2023-03-12T16:30:29;1.20;;;1.08;;
64684;SDS011;51109;47.414;18.954;2023-03-12T16:32:59;2.08;;;1.20;;
64684;SDS011;51109;47.414;18.954;2023-03-12T16:35:27;1.15;;;1.00;;
64684;SDS011;51109;47.414;18.954;2023-03-12T16:37:55;3.53;;;1.73;;
64684;SDS011;51109;47.414;18.954;2023-03-12T16:40:22;1.83;;;1.40;;
64684;SDS011;51109;47.414;18.954;2023-03-12T16:42:49;2.83;;;1.40;;
64684;SDS011;51109;47.414;18.954;2023-03-12T16:45:19;4.13;;;2.10;;
64684;SDS011;51109;47.414;18.954;2023-03-12T16:47:47;4.63;;;1.80;;
64684;SDS011;51109;47.414;18.954;2023-03-12T16:50:20;5.43;;;2.60;;
64684;SDS011;51109;47.414;18.954;2023-03-12T16:52:47;10.60;;;3.75;;
64684;SDS011;51109;47.414;18.954;2023-03-12T16:55:17;15.27;;;4.50;;
64684;SDS011;51109;47.414;18.954;2023-03-12T16:57:46;12.52;;;3.72;;
64684;SDS011;51109;47.414;18.954;2023-03-12T17:00:20;8.77;;;4.10;;
64684;SDS011;51109;47.414;18.954;2023-03-12T17:02:49;5.60;;;2.40;;
64684;SDS011;51109;47.414;18.954;2023-03-12T17:05:19;3.65;;;2.03;;